Time;durP1;ratioP1;P1;durP2;ratioP2;P2;SDS_P1;SDS_P2;PMS_P1;PMS_P2;Temp;Humidity;BMP_temperature;BMP_pressure;BME280_temperature;BME280_humidity;BME280_pressure;Samples;Min_cycle;Max_cycle;Signal;HPM_P1;HPM_P2
2021/09/13 00:00:59;;;;;;;19.23;9.67;;;21.30;99.90;;;;;;6209174;23;20168;-89
2021/09/13 00:03:34;;;;;;;21.33;10.20;;;21.30;99.90;;;;;;6202364;23;20203;-90
2021/09/13 00:06:09;;;;;;;19.53;9.77;;;21.00;99.90;;;;;;6235905;23;20207;-91
2021/09/13 00:08:42;;;;;;;16.43;7.33;;;20.70;99.90;;;;;;6234362;23;20168;-90
2021/09/13 00:11:15;;;;;;;10.47;5.37;;;20.60;99.90;;;;;;6213012;23;20176;-90
2021/09/13 00:16:29;;;;;;;7.13;3.13;;;20.20;99.90;;;;;;6214710;23;20238;-89
2021/09/13 00:19:01;;;;;;;4.77;3.13;;;20.10;99.90;;;;;;6236937;23;20188;-89
2021/09/13 00:21:32;;;;;;;6.67;3.30;;;20.00;99.90;;;;;;6233371;23;20184;-89
2021/09/13 00:24:10;;;;;;;8.27;2.97;;;19.90;99.90;;;;;;6235432;23;20191;-90
2021/09/13 00:27:00;;;;;;;6.87;2.57;;;19.80;99.90;;;;;;6230568;23;20231;-90
2021/09/13 00:29:33;;;;;;;8.50;2.67;;;19.70;99.90;;;;;;6234115;23;20183;-90
2021/09/13 00:32:05;;;;;;;4.53;2.20;;;19.60;99.90;;;;;;6236585;23;20152;-90
2021/09/13 00:34:37;;;;;;;5.33;2.37;;;19.50;99.90;;;;;;6233989;23;20203;-91
2021/09/13 00:37:08;;;;;;;3.57;2.40;;;19.50;99.90;;;;;;6230398;23;20179;-90
2021/09/13 00:39:42;;;;;;;5.10;1.97;;;19.30;99.90;;;;;;6233258;23;20222;-90
2021/09/13 00:42:13;;;;;;;3.40;1.90;;;19.30;99.90;;;;;;6229669;23;20175;-90
2021/09/13 00:44:44;;;;;;;6.33;2.20;;;19.20;99.90;;;;;;6234891;23;20176;-90
2021/09/13 00:47:15;;;;;;;5.17;2.20;;;19.10;99.90;;;;;;6233653;23;20184;-91
2021/09/13 00:49:47;;;;;;;4.43;2.10;;;19.10;99.90;;;;;;6234362;23;20172;-90
2021/09/13 00:52:21;;;;;;;7.67;2.20;;;19.20;99.90;;;;;;6235644;23;20515;-90
2021/09/13 00:54:56;;;;;;;5.00;2.17;;;19.20;99.90;;;;;;6234854;23;20192;-88
2021/09/13 00:57:28;;;;;;;4.87;2.53;;;19.00;99.90;;;;;;6230267;23;20180;-91
2021/09/13 01:00:00;;;;;;;2.73;1.90;;;19.00;99.90;;;;;;6230752;23;20179;-91
2021/09/13 01:02:42;;;;;;;2.20;1.67;;;18.90;99.90;;;;;;6235970;23;20293;-90
2021/09/13 01:05:15;;;;;;;5.20;2.13;;;18.90;99.90;;;;;;6209190;23;20175;-90
2021/09/13 01:07:47;;;;;;;2.37;1.60;;;18.70;99.90;;;;;;6230591;23;20187;-90
2021/09/13 01:10:24;;;;;;;3.90;1.80;;;18.80;99.90;;;;;;6237225;23;20192;-90
2021/09/13 01:12:55;;;;;;;4.37;1.87;;;18.70;99.90;;;;;;6236488;23;20243;-91
2021/09/13 01:15:27;;;;;;;3.77;1.70;;;18.60;99.90;;;;;;6236869;23;20235;-90
2021/09/13 01:17:58;;;;;;;5.57;1.90;;;18.60;99.90;;;;;;6227778;23;20186;-90
2021/09/13 01:20:29;;;;;;;3.73;1.70;;;18.50;99.90;;;;;;6237232;23;20168;-90
2021/09/13 01:23:06;;;;;;;3.70;1.60;;;18.40;99.90;;;;;;6217726;23;20175;-90
2021/09/13 01:25:39;;;;;;;5.13;2.00;;;18.30;99.90;;;;;;6242747;23;20195;-90
2021/09/13 01:28:10;;;;;;;3.10;2.23;;;18.30;99.90;;;;;;6236654;23;20169;-90
2021/09/13 01:30:42;;;;;;;3.30;2.20;;;18.30;99.90;;;;;;6231524;23;20199;-90
2021/09/13 01:33:13;;;;;;;3.83;2.30;;;18.20;99.90;;;;;;6226254;23;20167;-90
2021/09/13 01:35:45;;;;;;;4.47;2.23;;;18.10;99.90;;;;;;6228768;23;20255;-90
2021/09/13 01:38:18;;;;;;;2.80;2.03;;;18.00;99.90;;;;;;6226791;23;20176;-91
2021/09/13 01:40:53;;;;;;;2.90;1.87;;;18.00;99.90;;;;;;6208562;23;20169;-90
2021/09/13 01:43:23;;;;;;;5.53;1.57;;;17.90;99.90;;;;;;6235500;23;20168;-91
2021/09/13 01:45:55;;;;;;;2.77;1.80;;;17.90;99.90;;;;;;6233248;23;20187;-90
2021/09/13 01:48:28;;;;;;;2.47;1.70;;;17.90;99.90;;;;;;6232532;23;20176;-90
2021/09/13 01:51:00;;;;;;;2.53;1.40;;;17.80;99.90;;;;;;6223816;23;20172;-90
2021/09/13 01:53:32;;;;;;;4.30;1.70;;;17.90;99.90;;;;;;6229724;23;20576;-90
2021/09/13 01:56:06;;;;;;;3.47;1.80;;;17.80;99.90;;;;;;6226382;23;20200;-89
2021/09/13 01:58:37;;;;;;;2.77;1.53;;;17.80;99.90;;;;;;6195569;23;20176;-89
2021/09/13 02:01:08;;;;;;;4.93;1.70;;;17.80;99.90;;;;;;6201741;23;20169;-90
2021/09/13 02:03:40;;;;;;;3.53;1.67;;;17.80;99.90;;;;;;6225752;23;20177;-89
2021/09/13 02:06:12;;;;;;;3.87;2.10;;;17.80;99.90;;;;;;6239385;23;20200;-88
2021/09/13 02:08:43;;;;;;;7.03;1.80;;;17.70;99.90;;;;;;6212929;23;20173;-90
2021/09/13 02:11:18;;;;;;;4.80;1.97;;;17.70;99.90;;;;;;6231248;23;20180;-90
2021/09/13 02:13:54;;;;;;;4.90;1.80;;;17.70;99.90;;;;;;6209273;23;20164;-90
2021/09/13 02:16:25;;;;;;;4.33;2.00;;;17.60;99.90;;;;;;6232896;23;20232;-90
2021/09/13 02:18:56;;;;;;;4.67;2.23;;;17.60;99.90;;;;;;6234324;23;20160;-90
2021/09/13 02:21:29;;;;;;;8.83;2.17;;;17.50;99.90;;;;;;6233699;23;20177;-90
2021/09/13 02:24:02;;;;;;;4.70;1.90;;;17.50;99.90;;;;;;6234346;23;20176;-90
2021/09/13 02:26:36;;;;;;;4.23;2.20;;;17.40;99.90;;;;;;6234439;23;20453;-90
2021/09/13 02:29:07;;;;;;;3.23;2.07;;;17.40;99.90;;;;;;6234143;23;20179;-90
2021/09/13 02:31:40;;;;;;;4.17;2.33;;;17.30;99.90;;;;;;6208746;23;20724;-91
2021/09/13 02:34:12;;;;;;;4.27;2.53;;;17.30;99.90;;;;;;6237233;23;20196;-92
2021/09/13 02:36:44;;;;;;;4.13;2.40;;;17.30;99.90;;;;;;6239962;23;20161;-92
2021/09/13 02:39:17;;;;;;;5.03;2.40;;;17.30;99.90;;;;;;6218557;23;20228;-90
2021/09/13 02:41:56;;;;;;;3.47;2.20;;;17.20;99.90;;;;;;6243148;23;20164;-92
2021/09/13 02:44:28;;;;;;;3.73;2.23;;;17.20;99.90;;;;;;6242660;23;20175;-91
2021/09/13 02:47:00;;;;;;;4.87;2.47;;;17.20;99.90;;;;;;6242515;23;20191;-90
2021/09/13 02:49:32;;;;;;;6.03;2.60;;;17.10;99.90;;;;;;6215721;23;20164;-89
2021/09/13 02:55:02;;;;;;;4.70;2.20;;;17.10;99.90;;;;;;6236534;23;20248;-92
2021/09/13 02:57:37;;;;;;;3.37;2.33;;;17.10;99.90;;;;;;6233748;23;20176;-92
2021/09/13 03:00:10;;;;;;;5.27;3.27;;;17.10;99.90;;;;;;6234718;23;20175;-93
2021/09/13 03:02:43;;;;;;;5.97;2.67;;;17.10;99.90;;;;;;6233718;23;20538;-92
2021/09/13 03:05:15;;;;;;;4.43;2.50;;;17.00;99.90;;;;;;6207623;23;20224;-92
2021/09/13 03:07:47;;;;;;;4.07;2.70;;;17.00;99.90;;;;;;6232828;23;20177;-92
2021/09/13 03:15:54;;;;;;;4.73;2.50;;;16.90;99.90;;;;;;6205776;23;20209;-93
2021/09/13 03:18:25;;;;;;;6.07;2.73;;;16.90;99.90;;;;;;6203455;23;20272;-92
2021/09/13 03:20:57;;;;;;;6.47;2.50;;;16.90;99.90;;;;;;6205794;23;20177;-92
2021/09/13 03:23:28;;;;;;;5.80;2.70;;;16.90;99.90;;;;;;6208258;23;20173;-92
2021/09/13 03:26:05;;;;;;;3.37;2.60;;;16.90;99.90;;;;;;6209256;23;20232;-92
2021/09/13 03:28:39;;;;;;;5.73;2.60;;;16.90;99.90;;;;;;6205010;23;20177;-92
2021/09/13 03:31:10;;;;;;;5.40;3.00;;;16.90;99.90;;;;;;6203241;23;20192;-92
2021/09/13 03:33:44;;;;;;;5.27;2.70;;;16.90;99.90;;;;;;6203289;23;20204;-92
2021/09/13 03:36:15;;;;;;;4.60;2.50;;;16.90;99.90;;;;;;6202627;23;20204;-91
2021/09/13 03:38:48;;;;;;;3.47;2.60;;;16.80;99.90;;;;;;6203563;23;20176;-91
2021/09/13 03:41:20;;;;;;;4.70;3.10;;;16.80;99.90;;;;;;6205911;23;20184;-91
2021/09/13 03:43:55;;;;;;;8.23;3.50;;;16.80;99.90;;;;;;6185896;23;20188;-90
2021/09/13 03:46:26;;;;;;;5.77;3.20;;;16.80;99.90;;;;;;6212600;23;20161;-92
2021/09/13 03:48:57;;;;;;;7.80;3.10;;;16.80;99.90;;;;;;6212925;23;20165;-91
2021/09/13 03:51:32;;;;;;;4.77;2.90;;;16.80;99.90;;;;;;6210691;23;20738;-91
2021/09/13 03:54:04;;;;;;;6.07;3.33;;;16.80;99.90;;;;;;6211368;23;20157;-90
2021/09/13 03:56:35;;;;;;;6.00;2.90;;;16.70;99.90;;;;;;6206801;23;20212;-92
2021/09/13 04:01:45;;;;;;;5.70;2.93;;;16.70;99.90;;;;;;6233297;22;20287;-92
2021/09/13 04:04:22;;;;;;;6.43;3.57;;;16.70;99.90;;;;;;6232966;23;20176;-92
2021/09/13 04:06:57;;;;;;;6.03;3.00;;;16.70;99.90;;;;;;6233346;23;20198;-91
2021/09/13 04:12:21;;;;;;;4.70;2.73;;;16.70;99.90;;;;;;6236385;23;20175;-92
2021/09/13 04:14:55;;;;;;;3.83;2.40;;;16.60;99.90;;;;;;6236182;23;20160;-91
2021/09/13 04:17:30;;;;;;;4.10;2.50;;;16.60;99.90;;;;;;6237024;23;20184;-92
2021/09/13 04:30:43;;;;;;;4.80;2.40;;;16.60;99.90;;;;;;6232107;23;20203;-91
2021/09/13 04:33:16;;;;;;;4.90;2.63;;;16.60;99.90;;;;;;6227144;23;20175;-91
2021/09/13 04:35:48;;;;;;;3.80;2.47;;;16.60;99.90;;;;;;6224832;23;20662;-91
2021/09/13 04:38:27;;;;;;;4.33;2.87;;;16.60;99.90;;;;;;6227947;23;20183;-91
2021/09/13 04:40:58;;;;;;;5.27;2.70;;;16.60;99.90;;;;;;6225768;23;20606;-91
2021/09/13 04:43:30;;;;;;;4.27;2.47;;;16.50;99.90;;;;;;6222120;23;20180;-93
2021/09/13 04:46:01;;;;;;;5.97;2.80;;;16.50;99.90;;;;;;6229850;23;20209;-90
2021/09/13 04:48:35;;;;;;;4.03;2.17;;;16.50;99.90;;;;;;6241005;23;20748;-92
2021/09/13 04:51:07;;;;;;;4.17;2.60;;;16.50;99.90;;;;;;6224615;23;20178;-91
2021/09/13 04:53:38;;;;;;;4.70;2.60;;;16.50;99.90;;;;;;6224621;23;20176;-90
2021/09/13 04:56:11;;;;;;;4.70;2.70;;;16.50;99.90;;;;;;6224862;23;20282;-90
2021/09/13 04:58:42;;;;;;;5.20;2.70;;;16.40;99.90;;;;;;6220415;23;20222;-91
2021/09/13 05:01:14;;;;;;;4.17;2.40;;;16.40;99.90;;;;;;6196067;23;20673;-90
2021/09/13 05:03:49;;;;;;;4.73;2.20;;;16.30;99.90;;;;;;6222454;23;20251;-90
2021/09/13 05:06:21;;;;;;;2.50;1.77;;;16.30;99.90;;;;;;6219379;23;20183;-90
2021/09/13 05:08:53;;;;;;;5.83;2.10;;;16.20;99.90;;;;;;6228556;23;20177;-90
2021/09/13 05:11:25;;;;;;;5.33;2.10;;;16.20;99.90;;;;;;6221430;23;20187;-90
2021/09/13 05:13:56;;;;;;;6.03;1.93;;;16.10;99.90;;;;;;6222333;23;20224;-90
2021/09/13 05:16:30;;;;;;;4.47;2.00;;;16.00;99.90;;;;;;6194108;23;20214;-91
2021/09/13 05:19:06;;;;;;;6.27;1.77;;;16.00;99.90;;;;;;6195311;23;20627;-91
2021/09/13 05:21:40;;;;;;;5.17;1.57;;;16.00;99.90;;;;;;6220867;23;20196;-91
2021/09/13 05:24:12;;;;;;;3.97;1.93;;;16.00;99.90;;;;;;6224398;23;20180;-91
2021/09/13 05:26:44;;;;;;;7.00;1.93;;;15.90;99.90;;;;;;6219884;23;20169;-91
2021/09/13 05:29:19;;;;;;;4.70;1.63;;;15.90;99.90;;;;;;6221706;23;20231;-93
2021/09/13 05:31:50;;;;;;;3.57;1.30;;;15.90;99.90;;;;;;6222242;23;20165;-92
2021/09/13 05:34:24;;;;;;;5.33;1.37;;;15.80;99.90;;;;;;6222195;23;20172;-92
2021/09/13 05:36:56;;;;;;;4.13;1.43;;;15.80;99.90;;;;;;6221629;23;20195;-92
2021/09/13 05:39:28;;;;;;;4.33;1.80;;;15.70;99.90;;;;;;6221467;23;20508;-90
2021/09/13 05:41:59;;;;;;;3.83;1.63;;;15.70;99.90;;;;;;6222186;23;20199;-92
2021/09/13 05:44:31;;;;;;;5.27;1.40;;;15.60;99.90;;;;;;6222418;23;20176;-91
2021/09/13 05:47:02;;;;;;;4.10;1.30;;;15.60;99.90;;;;;;6221748;23;20192;-91
2021/09/13 05:49:35;;;;;;;3.70;1.37;;;15.50;99.90;;;;;;6225612;23;20187;-92
2021/09/13 05:52:07;;;;;;;4.37;1.40;;;15.50;99.90;;;;;;6222530;23;20195;-92
2021/09/13 05:54:38;;;;;;;7.07;1.83;;;15.40;99.90;;;;;;6222685;23;20712;-92
2021/09/13 05:57:09;;;;;;;4.40;1.80;;;15.30;99.90;;;;;;6222076;23;20204;-93
2021/09/13 05:59:41;;;;;;;5.53;1.87;;;15.30;99.90;;;;;;6223785;23;20196;-91
2021/09/13 06:02:13;;;;;;;5.90;1.43;;;15.20;99.90;;;;;;6241117;23;20164;-91
2021/09/13 06:04:48;;;;;;;6.43;1.60;;;15.20;99.90;;;;;;6243473;23;20160;-92
2021/09/13 06:07:21;;;;;;;4.37;1.90;;;15.10;99.90;;;;;;6215334;23;20203;-88
2021/09/13 06:09:53;;;;;;;6.27;1.57;;;15.10;99.90;;;;;;6228098;23;20159;-90
2021/09/13 06:12:28;;;;;;;4.90;1.80;;;15.10;99.90;;;;;;6226040;23;20222;-90
2021/09/13 06:15:00;;;;;;;4.93;1.60;;;15.10;99.90;;;;;;6228030;23;20172;-90
2021/09/13 06:17:36;;;;;;;3.97;1.60;;;15.10;99.90;;;;;;6224344;23;20206;-91
2021/09/13 06:20:14;;;;;;;3.43;1.50;;;15.00;99.90;;;;;;6226697;23;20168;-91
2021/09/13 06:22:46;;;;;;;4.47;1.67;;;15.00;99.90;;;;;;6226103;23;20168;-92
2021/09/13 06:25:17;;;;;;;3.80;1.30;;;15.00;99.90;;;;;;6225133;23;20183;-90
2021/09/13 06:27:52;;;;;;;5.83;1.50;;;14.90;99.90;;;;;;6224880;23;20161;-92
2021/09/13 06:30:26;;;;;;;4.40;1.30;;;14.90;99.90;;;;;;6191311;23;20184;-92
2021/09/13 06:32:57;;;;;;;7.30;2.43;;;14.90;99.90;;;;;;6192496;23;20181;-92
2021/09/13 06:35:31;;;;;;;2.37;1.20;;;14.90;99.90;;;;;;6168612;23;20192;-92
2021/09/13 06:38:03;;;;;;;6.20;1.60;;;14.90;99.90;;;;;;6196618;23;20204;-90
2021/09/13 06:40:35;;;;;;;7.40;1.87;;;14.80;99.90;;;;;;6200560;23;20169;-92
2021/09/13 06:43:09;;;;;;;4.93;1.30;;;14.80;99.90;;;;;;6208355;23;20149;-91
2021/09/13 06:45:44;;;;;;;5.90;1.70;;;14.80;99.90;;;;;;6207839;23;20192;-93
2021/09/13 06:48:16;;;;;;;8.30;1.80;;;14.70;99.90;;;;;;6211187;23;20184;-90
2021/09/13 06:50:49;;;;;;;5.17;1.63;;;14.70;99.90;;;;;;6209995;23;20181;-92
2021/09/13 06:53:21;;;;;;;5.37;1.87;;;14.50;99.90;;;;;;6210757;23;20255;-91
2021/09/13 06:55:52;;;;;;;8.23;1.83;;;14.50;99.90;;;;;;6210964;23;20169;-92
2021/09/13 06:58:23;;;;;;;4.07;1.57;;;14.50;99.90;;;;;;6210408;23;20200;-91
2021/09/13 07:00:55;;;;;;;5.50;1.60;;;14.40;99.90;;;;;;6176040;23;20181;-91
2021/09/13 07:03:27;;;;;;;5.03;1.83;;;14.40;99.90;;;;;;6195737;23;20560;-92
2021/09/13 07:06:03;;;;;;;7.43;1.60;;;14.30;99.90;;;;;;6194251;23;20239;-92
2021/09/13 07:08:35;;;;;;;4.77;1.20;;;14.30;99.90;;;;;;6193704;23;20181;-92
2021/09/13 07:11:06;;;;;;;5.47;1.27;;;14.30;99.90;;;;;;6194175;23;20488;-92
2021/09/13 07:13:37;;;;;;;4.90;1.30;;;14.30;99.90;;;;;;6193380;23;20177;-91
2021/09/13 07:16:09;;;;;;;5.23;1.67;;;14.40;99.90;;;;;;6191751;23;20181;-88
2021/09/13 07:18:40;;;;;;;3.90;1.30;;;14.30;99.90;;;;;;6193259;23;20259;-89
2021/09/13 07:21:14;;;;;;;4.70;1.60;;;14.30;99.90;;;;;;6194180;23;20174;-90
2021/09/13 07:23:46;;;;;;;6.57;1.53;;;14.30;99.90;;;;;;6193654;23;20166;-91
2021/09/13 07:26:17;;;;;;;8.40;1.60;;;14.30;99.90;;;;;;6191635;23;20200;-91
2021/09/13 07:28:48;;;;;;;4.97;1.60;;;14.30;99.90;;;;;;6195771;23;20177;-91
2021/09/13 07:31:20;;;;;;;4.40;1.40;;;14.30;99.90;;;;;;6197471;23;20647;-93
2021/09/13 07:33:52;;;;;;;3.23;1.40;;;14.30;99.90;;;;;;6224580;23;20518;-90
2021/09/13 07:36:26;;;;;;;3.50;1.30;;;14.30;99.90;;;;;;6223483;23;20289;-91
2021/09/13 07:38:59;;;;;;;2.83;1.23;;;14.30;99.90;;;;;;6226010;23;20203;-92
2021/09/13 07:41:31;;;;;;;5.20;1.47;;;14.30;99.90;;;;;;6223409;23;20168;-93
2021/09/13 07:44:02;;;;;;;4.80;1.40;;;14.20;99.90;;;;;;6222492;23;20519;-92
2021/09/13 07:46:34;;;;;;;4.03;1.40;;;14.20;99.90;;;;;;6227169;23;20176;-90
2021/09/13 07:49:05;;;;;;;3.57;1.20;;;14.20;99.90;;;;;;6231164;23;20169;-90
2021/09/13 07:51:39;;;;;;;8.30;1.60;;;14.20;99.90;;;;;;6225456;23;20176;-90
2021/09/13 07:54:11;;;;;;;6.20;1.50;;;14.20;99.90;;;;;;6222293;23;20180;-90
2021/09/13 07:56:42;;;;;;;3.80;1.30;;;14.10;99.90;;;;;;6221885;23;20685;-90
2021/09/13 07:59:13;;;;;;;6.03;1.50;;;14.10;99.90;;;;;;6224140;23;20708;-90
2021/09/13 08:01:47;;;;;;;3.97;1.30;;;14.00;99.90;;;;;;6228446;23;20234;-90
2021/09/13 08:04:18;;;;;;;4.63;1.50;;;14.00;99.90;;;;;;6241830;23;20164;-89
2021/09/13 08:06:52;;;;;;;5.83;1.50;;;14.00;99.90;;;;;;6216668;23;20168;-90
2021/09/13 08:09:23;;;;;;;4.70;1.30;;;13.90;99.90;;;;;;6242661;23;20191;-90
2021/09/13 08:11:54;;;;;;;5.03;1.37;;;13.90;99.90;;;;;;6242386;23;20226;-89
2021/09/13 08:14:25;;;;;;;4.80;1.63;;;13.80;99.90;;;;;;6241354;23;20168;-90
2021/09/13 08:16:57;;;;;;;9.03;2.00;;;13.80;99.90;;;;;;6239011;23;20184;-90
2021/09/13 08:19:28;;;;;;;3.90;1.50;;;13.80;99.90;;;;;;6240559;23;20207;-89
2021/09/13 08:22:02;;;;;;;5.57;1.67;;;13.80;99.90;;;;;;6242474;23;20168;-89
2021/09/13 08:24:34;;;;;;;5.37;1.40;;;13.80;99.90;;;;;;6235357;23;20187;-91
2021/09/13 08:27:08;;;;;;;4.87;1.27;;;13.80;99.90;;;;;;6225074;23;20191;-90
2021/09/13 08:29:48;;;;;;;4.30;1.20;;;13.80;99.90;;;;;;6208821;23;20216;-91
2021/09/13 08:32:19;;;;;;;5.53;1.53;;;13.80;99.90;;;;;;6226381;23;20185;-92
2021/09/13 08:34:51;;;;;;;6.80;1.60;;;13.80;99.90;;;;;;6234252;23;20180;-92
2021/09/13 08:37:24;;;;;;;3.80;1.30;;;13.80;99.90;;;;;;6231377;23;20177;-89
2021/09/13 08:39:55;;;;;;;7.00;1.47;;;13.70;99.90;;;;;;6231409;23;20176;-91
2021/09/13 08:42:36;;;;;;;6.40;1.60;;;13.70;99.90;;;;;;6232534;23;20232;-92
2021/09/13 08:45:11;;;;;;;3.37;1.40;;;13.70;99.90;;;;;;6230295;23;20182;-92
2021/09/13 08:47:52;;;;;;;5.13;1.37;;;13.70;99.90;;;;;;6229651;23;20177;-92
2021/09/13 08:50:36;;;;;;;3.90;1.33;;;13.70;99.90;;;;;;6221111;23;20219;-91
2021/09/13 08:53:13;;;;;;;4.47;1.47;;;13.60;99.90;;;;;;6219972;23;20176;-91
2021/09/13 08:55:45;;;;;;;5.57;1.20;;;13.60;99.90;;;;;;6193532;23;20180;-91
2021/09/13 08:58:22;;;;;;;4.77;1.43;;;13.60;99.90;;;;;;6219895;23;20501;-90
2021/09/13 09:00:55;;;;;;;3.70;1.17;;;13.60;99.90;;;;;;6193545;23;20175;-90
2021/09/13 09:03:28;;;;;;;5.03;1.53;;;13.60;99.90;;;;;;6221864;23;20176;-90
2021/09/13 09:06:00;;;;;;;3.80;1.27;;;13.60;99.90;;;;;;6221585;23;20240;-90
2021/09/13 09:08:36;;;;;;;5.77;1.30;;;13.60;99.90;;;;;;6195936;23;20203;-91
2021/09/13 09:11:13;;;;;;;3.33;1.50;;;13.50;99.90;;;;;;6222475;23;20168;-89
2021/09/13 09:13:46;;;;;;;3.00;1.37;;;13.40;99.90;;;;;;6221975;23;20236;-90
2021/09/13 09:16:17;;;;;;;5.07;1.87;;;13.40;99.90;;;;;;6221424;23;20504;-90
2021/09/13 09:18:52;;;;;;;4.03;1.77;;;13.30;99.90;;;;;;6222675;23;20541;-90
2021/09/13 09:21:33;;;;;;;5.37;1.70;;;13.30;99.90;;;;;;6222292;23;20172;-89
2021/09/13 09:24:09;;;;;;;4.03;1.50;;;13.20;99.90;;;;;;6221764;23;20195;-90
2021/09/13 09:26:42;;;;;;;4.57;1.77;;;13.20;99.90;;;;;;6220299;23;20661;-90
2021/09/13 09:29:29;;;;;;;6.27;1.40;;;13.10;99.90;;;;;;6221629;23;20169;-90
2021/09/13 09:32:01;;;;;;;5.60;1.60;;;13.10;99.90;;;;;;6221420;23;20211;-90
2021/09/13 09:34:36;;;;;;;6.67;1.60;;;13.00;99.90;;;;;;6195592;23;20196;-90
2021/09/13 09:37:12;;;;;;;4.20;1.20;;;12.90;99.90;;;;;;6219932;23;20198;-90
2021/09/13 09:39:48;;;;;;;5.00;1.67;;;12.90;99.90;;;;;;6221413;23;20207;-89
2021/09/13 09:42:32;;;;;;;5.53;1.80;;;12.80;99.90;;;;;;6221164;23;20444;-90
2021/09/13 09:45:06;;;;;;;5.23;1.60;;;12.80;99.90;;;;;;6221401;23;20188;-90
2021/09/13 09:47:37;;;;;;;5.23;1.43;;;12.80;99.90;;;;;;6220721;23;20177;-90
2021/09/13 09:50:10;;;;;;;3.87;1.40;;;12.80;99.90;;;;;;6221386;23;20784;-89
2021/09/13 09:52:42;;;;;;;4.27;1.43;;;12.70;99.90;;;;;;6220971;23;20231;-90
2021/09/13 09:55:17;;;;;;;3.70;1.40;;;12.70;99.90;;;;;;6221385;23;20180;-89
2021/09/13 09:58:06;;;;;;;3.33;1.70;;;12.60;99.90;;;;;;6220379;23;20311;-89
2021/09/13 10:00:38;;;;;;;3.83;1.57;;;12.60;99.90;;;;;;6221306;23;20183;-89
2021/09/13 10:03:10;;;;;;;6.77;1.67;;;12.50;99.90;;;;;;6221016;23;20176;-90
2021/09/13 10:05:41;;;;;;;4.17;1.67;;;12.50;99.90;;;;;;6220857;23;20508;-91
2021/09/13 10:08:14;;;;;;;5.20;1.60;;;12.50;99.90;;;;;;6221212;23;20168;-89
2021/09/13 10:10:46;;;;;;;6.47;1.67;;;12.40;99.90;;;;;;6221539;23;20192;-90
2021/09/13 10:13:17;;;;;;;8.27;1.90;;;12.40;99.90;;;;;;6221470;23;20199;-90
2021/09/13 10:15:49;;;;;;;5.50;1.40;;;12.40;99.90;;;;;;6219536;23;20639;-90
2021/09/13 10:18:21;;;;;;;5.83;1.77;;;12.40;99.90;;;;;;6219842;23;20223;-89
2021/09/13 10:20:54;;;;;;;2.87;1.40;;;12.30;99.90;;;;;;6220490;23;20203;-89
2021/09/13 10:23:25;;;;;;;3.23;1.37;;;12.30;99.90;;;;;;6196084;23;20555;-89
2021/09/13 10:25:58;;;;;;;5.13;1.77;;;12.20;99.90;;;;;;6219021;23;20204;-90
2021/09/13 10:28:31;;;;;;;5.67;1.70;;;12.20;99.90;;;;;;6220697;23;20623;-90
2021/09/13 10:31:02;;;;;;;5.67;1.40;;;12.10;99.90;;;;;;6222267;23;20192;-90
2021/09/13 10:33:59;;;;;;;4.53;1.63;;;12.10;99.90;;;;;;6239836;23;20160;-90
2021/09/13 10:37:02;;;;;;;3.77;1.73;;;12.00;99.90;;;;;;6216220;23;20168;-90
2021/09/13 10:40:00;;;;;;;7.50;1.67;;;12.00;99.90;;;;;;6222855;23;20200;-90
2021/09/13 10:42:43;;;;;;;5.90;1.80;;;11.90;99.90;;;;;;6224637;23;20607;-90
2021/09/13 10:45:21;;;;;;;3.17;1.40;;;11.90;99.90;;;;;;6222383;23;20176;-90
2021/09/13 10:48:03;;;;;;;3.47;1.53;;;11.80;99.90;;;;;;6220290;23;20183;-90
2021/09/13 10:50:46;;;;;;;6.20;1.73;;;11.80;99.90;;;;;;6220796;23;20180;-89
2021/09/13 10:53:38;;;;;;;5.07;1.53;;;11.80;99.90;;;;;;6220443;23;20192;-89
2021/09/13 10:56:23;;;;;;;5.37;1.80;;;11.70;99.90;;;;;;6219645;23;20188;-90
2021/09/13 10:58:56;;;;;;;2.90;1.50;;;11.70;99.90;;;;;;6222379;23;20627;-90
2021/09/13 11:01:30;;;;;;;5.37;1.53;;;11.70;99.90;;;;;;6221541;23;20185;-89
2021/09/13 11:04:07;;;;;;;2.50;1.57;;;11.60;99.90;;;;;;6219834;23;20206;-89
2021/09/13 11:06:43;;;;;;;7.90;2.00;;;11.50;99.90;;;;;;6219198;23;20623;-89
2021/09/13 11:09:23;;;;;;;3.27;1.73;;;11.50;99.90;;;;;;6220565;23;20180;-90
2021/09/13 11:11:57;;;;;;;5.13;1.60;;;11.60;99.90;;;;;;6194276;23;20175;-87
2021/09/13 11:14:32;;;;;;;5.07;1.97;;;11.60;99.90;;;;;;6220205;23;20255;-89
2021/09/13 11:17:05;;;;;;;4.37;1.70;;;11.60;99.90;;;;;;6219082;23;20702;-90
2021/09/13 11:19:36;;;;;;;3.60;1.53;;;11.60;99.90;;;;;;6219737;23;20280;-90
2021/09/13 11:22:07;;;;;;;4.80;2.30;;;11.60;99.90;;;;;;6219848;23;20176;-89
2021/09/13 11:24:41;;;;;;;5.20;1.80;;;11.60;99.90;;;;;;6219440;23;20161;-89
2021/09/13 11:27:13;;;;;;;3.43;1.67;;;11.60;99.90;;;;;;6193635;23;20172;-89
2021/09/13 11:29:48;;;;;;;6.10;1.60;;;11.50;99.90;;;;;;6220139;23;20173;-90
2021/09/13 11:32:20;;;;;;;4.40;1.97;;;11.50;99.90;;;;;;6220080;23;20607;-90
2021/09/13 11:34:52;;;;;;;3.63;1.53;;;11.50;99.90;;;;;;6194380;23;20169;-90
2021/09/13 11:37:26;;;;;;;6.27;2.00;;;11.50;99.90;;;;;;6217829;23;20180;-90
2021/09/13 11:40:18;;;;;;;5.53;1.63;;;11.50;99.90;;;;;;6222702;23;20295;-90
2021/09/13 11:42:49;;;;;;;5.17;1.63;;;11.50;99.90;;;;;;6218995;23;20177;-90
2021/09/13 11:45:22;;;;;;;4.40;1.67;;;11.50;99.90;;;;;;6220523;23;20212;-90
2021/09/13 11:47:56;;;;;;;5.87;1.60;;;11.50;99.90;;;;;;6218685;23;20242;-90
2021/09/13 11:50:27;;;;;;;6.80;1.57;;;11.50;99.90;;;;;;6220079;23;20169;-90
2021/09/13 11:52:58;;;;;;;4.83;1.57;;;11.50;99.90;;;;;;6219773;23;20181;-90
2021/09/13 11:55:30;;;;;;;4.77;1.90;;;11.50;99.90;;;;;;6220192;23;20215;-90
2021/09/13 11:58:01;;;;;;;4.00;1.60;;;11.50;99.90;;;;;;6219042;23;20599;-90
2021/09/13 12:00:37;;;;;;;4.60;1.57;;;11.50;99.90;;;;;;6219739;23;20217;-89
2021/09/13 12:03:11;;;;;;;5.73;1.57;;;11.50;99.90;;;;;;6220517;23;20172;-89
2021/09/13 12:05:44;;;;;;;7.60;2.00;;;11.60;99.90;;;;;;6218837;23;20260;-91
2021/09/13 12:08:19;;;;;;;4.47;1.60;;;11.60;99.90;;;;;;6219152;23;20491;-89
2021/09/13 12:10:52;;;;;;;5.40;1.77;;;11.70;99.90;;;;;;6219796;23;20175;-89
2021/09/13 12:13:25;;;;;;;4.57;1.90;;;11.70;99.90;;;;;;6218701;23;20615;-89
2021/09/13 12:16:01;;;;;;;4.87;1.50;;;11.70;99.90;;;;;;6192708;23;20171;-89
2021/09/13 12:18:33;;;;;;;3.40;1.33;;;11.70;99.90;;;;;;6220246;23;20502;-89
2021/09/13 12:21:07;;;;;;;5.20;1.37;;;11.70;99.90;;;;;;6218752;23;20211;-89
2021/09/13 12:23:42;;;;;;;4.83;1.80;;;11.70;99.90;;;;;;6193149;23;20628;-89
2021/09/13 12:26:25;;;;;;;4.13;1.50;;;11.70;99.90;;;;;;6217096;23;20172;-90
2021/09/13 12:28:57;;;;;;;3.33;1.37;;;11.70;99.90;;;;;;6219379;23;20178;-90
2021/09/13 12:31:31;;;;;;;4.57;1.60;;;11.70;99.90;;;;;;6218647;23;20190;-90
2021/09/13 12:34:05;;;;;;;3.37;1.53;;;11.70;99.90;;;;;;6220275;23;20169;-91
2021/09/13 12:36:37;;;;;;;5.87;1.67;;;11.70;99.90;;;;;;6218967;23;20175;-91
2021/09/13 12:39:11;;;;;;;4.17;1.40;;;11.60;99.90;;;;;;6220067;23;20180;-91
2021/09/13 12:41:43;;;;;;;7.13;1.50;;;11.60;99.90;;;;;;6220246;23;20176;-90
2021/09/13 12:44:17;;;;;;;5.80;1.47;;;11.50;99.90;;;;;;6220488;23;20196;-90
2021/09/13 12:46:52;;;;;;;5.27;1.57;;;11.50;99.90;;;;;;6237253;23;20152;-90
2021/09/13 12:49:27;;;;;;;4.53;1.80;;;11.40;99.90;;;;;;6241625;23;20172;-89
2021/09/13 12:52:03;;;;;;;5.93;1.57;;;11.40;99.90;;;;;;6232783;23;20200;-90
2021/09/13 12:54:36;;;;;;;4.40;1.50;;;11.40;99.90;;;;;;6220420;23;20199;-91
2021/09/13 12:57:08;;;;;;;3.77;1.80;;;11.40;99.90;;;;;;6219068;23;20176;-90
2021/09/13 12:59:41;;;;;;;3.17;1.70;;;11.40;99.90;;;;;;6219756;23;20219;-90
2021/09/13 13:02:19;;;;;;;9.20;1.80;;;11.40;99.90;;;;;;6219660;23;20184;-90
2021/09/13 13:04:50;;;;;;;5.00;1.60;;;11.40;99.90;;;;;;6219536;23;20222;-89
2021/09/13 13:07:21;;;;;;;4.83;1.70;;;11.40;99.90;;;;;;6192615;23;20611;-89
2021/09/13 13:09:53;;;;;;;5.37;1.60;;;11.40;99.90;;;;;;6219750;23;20181;-89
2021/09/13 13:12:25;;;;;;;3.80;1.67;;;11.40;99.90;;;;;;6219793;23;20183;-88
2021/09/13 13:14:58;;;;;;;5.20;1.40;;;11.40;99.90;;;;;;6219361;23;20236;-89
2021/09/13 13:17:35;;;;;;;4.67;1.90;;;11.40;99.90;;;;;;6219198;23;20189;-89
2021/09/13 13:20:08;;;;;;;2.53;1.53;;;11.40;99.90;;;;;;6219959;23;20211;-90
2021/09/13 13:22:39;;;;;;;3.07;1.50;;;11.40;99.90;;;;;;6190679;23;20181;-90
2021/09/13 13:25:11;;;;;;;5.77;1.53;;;11.40;99.90;;;;;;6191016;23;20251;-88
2021/09/13 13:27:42;;;;;;;4.37;1.87;;;11.40;99.90;;;;;;6189357;23;20204;-89
2021/09/13 13:30:13;;;;;;;3.60;1.50;;;11.40;99.90;;;;;;6192480;23;20184;-89
2021/09/13 13:32:47;;;;;;;3.90;1.70;;;11.40;99.90;;;;;;6193098;23;20181;-89
2021/09/13 13:35:18;;;;;;;6.27;1.90;;;11.40;99.90;;;;;;6194936;23;20169;-88
2021/09/13 13:37:49;;;;;;;5.90;1.90;;;11.40;99.90;;;;;;6206967;23;20158;-89
2021/09/13 13:40:20;;;;;;;5.47;1.70;;;11.40;99.90;;;;;;6210759;23;20197;-87
2021/09/13 13:42:51;;;;;;;6.63;1.70;;;11.40;99.90;;;;;;6210747;23;20176;-90
2021/09/13 13:45:23;;;;;;;3.70;1.70;;;11.40;99.90;;;;;;6209972;23;20180;-89